createdAt,value
2023-11-17T00:01:51.078Z,77.98
2023-11-17T00:04:54.031Z,78.35
2023-11-17T00:07:56.554Z,79.87
2023-11-17T00:10:59.290Z,78.77
2023-11-17T00:14:01.784Z,79.09
2023-11-17T00:17:04.556Z,80.26
2023-11-17T00:20:07.953Z,79.50
2023-11-17T00:23:10.340Z,79.57
2023-11-17T00:26:13.071Z,80.07
2023-11-17T00:29:15.565Z,80.57
2023-11-17T00:32:18.090Z,80.15
2023-11-17T00:35:21.866Z,80.75
2023-11-17T00:38:25.394Z,80.66
2023-11-17T00:41:30.691Z,81.38
2023-11-17T00:44:34.350Z,79.88
2023-11-17T00:47:37.294Z,79.46
2023-11-17T00:50:39.696Z,80.19
2023-11-17T00:53:42.259Z,80.40
2023-11-17T00:56:44.657Z,80.02
2023-11-17T00:59:47.096Z,78.86
2023-11-17T01:02:50.096Z,79.46
2023-11-17T01:05:56.342Z,79.33
2023-11-17T01:08:58.861Z,79.21
2023-11-17T01:12:01.295Z,79.29
2023-11-17T01:15:05.212Z,79.36
2023-11-17T01:18:08.488Z,79.18
2023-11-17T01:21:12.097Z,79.41
2023-11-17T01:24:14.459Z,80.09
2023-11-17T01:27:17.360Z,79.73
2023-11-17T01:30:22.312Z,79.61
2023-11-17T01:33:26.079Z,79.89
2023-11-17T01:36:28.519Z,80.56
2023-11-17T01:39:31.192Z,81.45
2023-11-17T01:42:38.433Z,82.08
2023-11-17T01:45:41.215Z,83.31
2023-11-17T01:48:44.629Z,84.09
2023-11-17T01:51:47.635Z,85.85
2023-11-17T01:54:51.902Z,87.95
2023-11-17T01:57:54.354Z,88.39
2023-11-17T02:00:57.314Z,90.00
2023-11-17T02:04:00.433Z,90.58
2023-11-17T02:07:03.553Z,92.26
2023-11-17T02:10:36.392Z,93.21
2023-11-17T02:13:39.995Z,91.94
2023-11-17T02:16:43.641Z,93.17
2023-11-17T02:19:46.647Z,92.75
2023-11-17T02:22:50.204Z,93.05
2023-11-17T02:26:18.782Z,93.21
2023-11-17T02:29:40.305Z,92.84
2023-11-17T02:32:42.809Z,93.27
2023-11-17T02:35:45.289Z,95.67
2023-11-17T02:39:14.078Z,94.72
2023-11-17T02:42:25.139Z,95.76
2023-11-17T02:45:27.572Z,97.08
2023-11-17T02:48:31.040Z,97.21
2023-11-17T02:51:44.927Z,96.88
2023-11-17T02:54:48.174Z,97.62
2023-11-17T02:57:50.683Z,97.93
2023-11-17T03:00:53.368Z,97.18
2023-11-17T03:03:57.023Z,97.34
2023-11-17T03:07:03.410Z,97.55
2023-11-17T03:10:06.640Z,96.98
2023-11-17T03:13:15.139Z,97.97
2023-11-17T03:16:25.106Z,98.01
2023-11-17T03:19:28.682Z,97.71
2023-11-17T03:22:31.158Z,99.51
2023-11-17T03:25:39.996Z,99.22
2023-11-17T03:28:44.036Z,98.78
2023-11-17T03:31:50.545Z,100.00
2023-11-17T03:34:53.980Z,100.00
2023-11-17T03:37:57.085Z,100.00
2023-11-17T03:41:01.015Z,100.00
2023-11-17T03:44:03.505Z,100.00
2023-11-17T03:47:08.183Z,100.00
2023-11-17T03:50:15.266Z,100.00
2023-11-17T03:53:17.944Z,100.00
2023-11-17T03:56:21.477Z,100.00
2023-11-17T03:59:24.029Z,100.00
2023-11-17T04:02:27.713Z,100.00
2023-11-17T04:05:33.924Z,100.00
2023-11-17T04:08:36.324Z,100.00
2023-11-17T04:11:41.190Z,100.00
2023-11-17T04:14:43.844Z,100.00
2023-11-17T04:17:46.350Z,100.00
2023-11-17T04:20:49.490Z,100.00
2023-11-17T04:23:51.966Z,100.00
2023-11-17T04:26:54.450Z,100.00
2023-11-17T04:29:57.534Z,100.00
2023-11-17T04:32:59.988Z,100.00
2023-11-17T04:36:02.742Z,100.00
2023-11-17T04:39:13.132Z,100.00
2023-11-17T04:42:15.689Z,100.00
2023-11-17T04:45:19.162Z,100.00
2023-11-17T04:48:21.877Z,100.00
2023-11-17T04:51:24.218Z,100.00
2023-11-17T04:54:27.552Z,100.00
2023-11-17T04:57:29.963Z,100.00
2023-11-17T05:00:35.405Z,100.00
2023-11-17T05:03:40.267Z,100.00
2023-11-17T05:06:43.566Z,100.00
2023-11-17T05:09:45.916Z,100.00
2023-11-17T05:12:49.205Z,100.00
2023-11-17T05:15:51.713Z,100.00
2023-11-17T05:18:54.190Z,100.00
2023-11-17T05:21:56.667Z,100.00
2023-11-17T05:25:00.242Z,100.00
2023-11-17T05:28:02.814Z,100.00
2023-11-17T05:31:05.359Z,100.00
2023-11-17T05:34:10.255Z,100.00
2023-11-17T05:37:12.752Z,100.00
2023-11-17T05:40:15.747Z,100.00
2023-11-17T05:43:19.460Z,100.00
2023-11-17T05:46:22.066Z,99.82
2023-11-17T05:49:24.706Z,100.00
2023-11-17T05:52:27.179Z,100.00
2023-11-17T05:55:29.906Z,100.00
2023-11-17T05:58:32.398Z,100.00
2023-11-17T06:01:36.420Z,100.00
2023-11-17T06:04:39.000Z,100.00
2023-11-17T06:07:41.489Z,100.00
2023-11-17T06:10:43.888Z,100.00
2023-11-17T06:13:46.920Z,100.00
2023-11-17T06:16:53.131Z,100.00
2023-11-17T06:19:55.621Z,100.00
2023-11-17T06:22:59.024Z,100.00
2023-11-17T06:26:01.447Z,100.00
2023-11-17T06:29:04.109Z,100.00
2023-11-17T06:32:07.579Z,100.00
2023-11-17T06:35:10.378Z,100.00
2023-11-17T06:38:14.766Z,99.66
2023-11-17T06:41:17.317Z,99.29
2023-11-17T06:44:20.965Z,100.00
2023-11-17T06:47:24.975Z,99.98
2023-11-17T06:50:27.474Z,100.00
2023-11-17T06:53:30.453Z,99.25
2023-11-17T06:56:33.067Z,99.12
2023-11-17T06:59:35.811Z,97.79
2023-11-17T07:02:38.429Z,97.13
2023-11-17T07:05:42.304Z,98.44
2023-11-17T07:08:44.778Z,99.26
2023-11-17T07:11:48.447Z,99.16
2023-11-17T07:14:50.868Z,97.61
2023-11-17T07:17:55.030Z,98.64
2023-11-17T07:20:57.489Z,98.18
2023-11-17T07:23:59.960Z,98.31
2023-11-17T07:27:03.007Z,98.22
2023-11-17T07:30:09.043Z,99.94
2023-11-17T07:33:12.238Z,97.55
2023-11-17T07:36:19.769Z,98.96
2023-11-17T07:39:24.653Z,98.84
2023-11-17T07:42:27.429Z,99.00
2023-11-17T07:45:29.879Z,98.69
2023-11-17T07:48:39.110Z,97.92
2023-11-17T07:51:49.046Z,96.52
2023-11-17T07:54:52.141Z,94.45
2023-11-17T07:57:57.665Z,96.41
2023-11-17T08:01:00.184Z,96.05
2023-11-17T08:04:02.870Z,93.63
2023-11-17T08:07:06.415Z,94.81
2023-11-17T08:10:10.591Z,96.09
2023-11-17T08:13:13.418Z,96.11
2023-11-17T08:16:15.904Z,94.56
2023-11-17T08:19:24.940Z,95.66
2023-11-17T08:22:31.382Z,94.27
2023-11-17T08:25:33.886Z,94.68
2023-11-17T08:28:36.458Z,95.39
2023-11-17T08:31:38.923Z,95.02
2023-11-17T08:34:41.552Z,92.36
2023-11-17T08:37:44.014Z,91.62
2023-11-17T08:40:46.441Z,89.62
2023-11-17T08:43:50.189Z,87.85
2023-11-17T08:46:53.731Z,87.00
2023-11-17T08:49:59.625Z,87.66
2023-11-17T08:53:05.390Z,86.57
2023-11-17T08:56:08.079Z,88.87
2023-11-17T08:59:11.577Z,91.06
2023-11-17T09:02:15.775Z,91.20
2023-11-17T09:05:18.966Z,92.25
2023-11-17T09:08:22.077Z,92.92
2023-11-17T09:11:26.811Z,93.35
2023-11-17T09:14:32.475Z,93.59
2023-11-17T09:17:41.825Z,92.93
2023-11-17T09:20:44.276Z,94.03
2023-11-17T09:23:46.791Z,93.70
2023-11-17T09:26:49.395Z,93.75
2023-11-17T09:29:52.144Z,92.37
2023-11-17T09:32:57.042Z,91.34
2023-11-17T09:36:01.844Z,90.45
2023-11-17T09:39:07.411Z,90.58
2023-11-17T09:42:09.929Z,90.66
2023-11-17T09:45:12.359Z,91.19
2023-11-17T09:48:15.479Z,92.25
2023-11-17T09:51:20.082Z,92.16
2023-11-17T09:54:25.680Z,90.99
2023-11-17T09:57:28.541Z,91.27
2023-11-17T10:00:32.791Z,90.40
2023-11-17T10:03:35.707Z,89.90
2023-11-17T10:06:39.240Z,89.16
2023-11-17T10:09:43.073Z,87.76
2023-11-17T10:12:45.794Z,89.36
2023-11-17T10:15:52.714Z,86.33
2023-11-17T10:18:56.909Z,86.45
2023-11-17T10:21:59.612Z,85.75
2023-11-17T10:25:02.341Z,85.23
2023-11-17T10:28:05.079Z,85.31
2023-11-17T10:31:08.053Z,85.00
2023-11-17T10:34:18.196Z,83.72
2023-11-17T10:37:20.938Z,82.98
2023-11-17T10:40:27.625Z,82.50
2023-11-17T10:43:30.216Z,83.78
2023-11-17T10:46:45.720Z,83.14
2023-11-17T10:49:54.027Z,82.63
2023-11-17T10:53:00.056Z,79.19
2023-11-17T10:56:02.432Z,78.41
2023-11-17T10:59:06.090Z,78.10
2023-11-17T11:02:10.645Z,78.74
2023-11-17T11:05:13.149Z,80.16
2023-11-17T11:08:19.693Z,81.11
2023-11-17T11:11:25.107Z,82.03
2023-11-17T11:14:28.469Z,81.89
2023-11-17T11:17:34.044Z,82.87
2023-11-17T11:20:36.647Z,82.39
2023-11-17T11:23:39.159Z,83.73
2023-11-17T11:26:41.558Z,81.98
2023-11-17T11:29:44.087Z,82.30
2023-11-17T11:32:46.692Z,81.10
2023-11-17T11:35:49.609Z,81.25
2023-11-17T11:38:52.208Z,81.99
2023-11-17T11:41:54.749Z,82.82
2023-11-17T11:44:57.194Z,82.82
2023-11-17T11:48:01.786Z,82.06
2023-11-17T11:51:13.401Z,81.71
2023-11-17T11:54:16.264Z,82.98
2023-11-17T11:57:29.771Z,81.34
2023-11-17T12:00:32.893Z,81.00
2023-11-17T12:03:36.284Z,81.06
2023-11-17T12:06:44.360Z,80.32
2023-11-17T12:09:49.614Z,81.01
2023-11-17T12:12:56.948Z,80.26
2023-11-17T12:15:59.545Z,80.64
2023-11-17T12:19:02.547Z,80.10
2023-11-17T12:22:05.397Z,81.12
2023-11-17T12:25:12.475Z,82.37
2023-11-17T12:28:15.335Z,83.27
2023-11-17T12:31:18.356Z,82.31
2023-11-17T12:34:21.245Z,82.33
2023-11-17T12:37:23.818Z,83.14
2023-11-17T12:40:29.763Z,84.07
2023-11-17T12:43:32.621Z,83.00
2023-11-17T12:46:36.619Z,81.98
2023-11-17T12:49:52.990Z,82.88
2023-11-17T12:53:07.667Z,83.51
2023-11-17T12:56:11.776Z,82.82
2023-11-17T12:59:14.355Z,83.87
2023-11-17T13:02:16.891Z,85.08
2023-11-17T13:05:19.966Z,85.19
2023-11-17T13:08:22.492Z,87.42
2023-11-17T13:11:34.369Z,88.50
2023-11-17T13:14:37.290Z,89.24
2023-11-17T13:17:39.887Z,89.07
2023-11-17T13:20:42.395Z,88.94
2023-11-17T13:23:45.679Z,89.63
2023-11-17T13:26:48.417Z,90.55
2023-11-17T13:29:50.887Z,88.62
2023-11-17T13:33:03.192Z,91.14
2023-11-17T13:36:06.469Z,90.14
2023-11-17T13:39:17.338Z,90.38
2023-11-17T13:42:20.415Z,91.73
2023-11-17T13:45:23.637Z,90.67
2023-11-17T13:48:26.672Z,91.67
2023-11-17T13:51:30.599Z,91.19
2023-11-17T13:54:35.510Z,90.25
2023-11-17T13:57:38.230Z,90.37
2023-11-17T14:00:43.982Z,90.21
2023-11-17T14:03:47.426Z,92.76
2023-11-17T14:06:50.248Z,91.87
2023-11-17T14:09:53.712Z,90.49
2023-11-17T14:12:56.059Z,89.78
2023-11-17T14:15:59.344Z,92.00
2023-11-17T14:19:01.803Z,92.84
2023-11-17T14:22:08.166Z,92.92
2023-11-17T14:25:11.146Z,93.37
2023-11-17T14:28:16.729Z,93.73
2023-11-17T14:31:21.229Z,92.90
2023-11-17T14:34:24.064Z,92.90
2023-11-17T14:37:30.178Z,91.14
2023-11-17T14:40:32.711Z,92.45
2023-11-17T14:43:35.227Z,91.61
2023-11-17T14:46:37.784Z,89.63
2023-11-17T14:49:41.206Z,89.59
2023-11-17T14:52:44.166Z,88.64
2023-11-17T14:55:46.631Z,90.42
2023-11-17T14:58:49.227Z,90.01
2023-11-17T15:01:51.824Z,88.11
2023-11-17T15:04:57.045Z,85.82
2023-11-17T15:07:59.578Z,86.59
2023-11-17T15:11:02.708Z,85.49
2023-11-17T15:14:07.949Z,87.42
2023-11-17T15:17:16.110Z,86.82
2023-11-17T15:20:19.652Z,86.37
2023-11-17T15:23:22.019Z,86.67
2023-11-17T15:26:28.934Z,87.71
2023-11-17T15:29:32.241Z,88.53
2023-11-17T15:32:35.139Z,87.37
2023-11-17T15:35:37.855Z,88.12
2023-11-17T15:38:44.403Z,88.24
2023-11-17T15:41:48.012Z,88.43
2023-11-17T15:44:50.941Z,86.83
2023-11-17T15:47:53.872Z,86.97
2023-11-17T15:50:56.749Z,85.90
2023-11-17T15:53:59.166Z,86.00
2023-11-17T15:57:02.120Z,87.58
2023-11-17T16:00:05.199Z,85.64
2023-11-17T16:03:08.020Z,85.76
2023-11-17T16:06:11.628Z,84.19
2023-11-17T16:09:14.801Z,85.28
2023-11-17T16:12:17.298Z,83.99
2023-11-17T16:15:20.178Z,84.84
2023-11-17T16:18:22.590Z,83.50
2023-11-17T16:21:24.942Z,82.59
2023-11-17T16:24:28.281Z,82.00
2023-11-17T16:27:30.855Z,82.10
2023-11-17T16:30:33.277Z,82.57
2023-11-17T16:33:39.212Z,82.76
2023-11-17T16:36:47.149Z,82.02
2023-11-17T16:39:49.843Z,81.63
2023-11-17T16:43:09.489Z,80.80
2023-11-17T16:46:12.793Z,81.85
2023-11-17T16:49:15.538Z,81.23
2023-11-17T16:52:19.584Z,81.80
2023-11-17T16:55:22.720Z,82.85
2023-11-17T16:58:25.278Z,80.43
2023-11-17T17:01:28.682Z,81.80
2023-11-17T17:04:31.306Z,81.38
2023-11-17T17:07:35.095Z,80.53
2023-11-17T17:10:38.272Z,80.12
2023-11-17T17:13:41.552Z,79.26
2023-11-17T17:16:44.198Z,80.18
2023-11-17T17:19:46.680Z,78.24
2023-11-17T17:22:53.998Z,78.91
2023-11-17T17:25:56.965Z,78.41
2023-11-17T17:28:59.526Z,77.80
2023-11-17T17:32:02.096Z,76.78
2023-11-17T17:35:05.926Z,78.38
2023-11-17T17:38:12.594Z,77.26
2023-11-17T17:41:20.562Z,76.44
2023-11-17T17:44:25.115Z,77.91
2023-11-17T17:47:28.645Z,76.14
2023-11-17T17:50:31.582Z,76.68
2023-11-17T17:53:34.560Z,76.22
2023-11-17T17:56:38.019Z,76.89
2023-11-17T17:59:40.530Z,75.57
2023-11-17T18:02:44.244Z,75.68
2023-11-17T18:05:46.778Z,75.78
2023-11-17T18:08:49.282Z,75.99
2023-11-17T18:11:53.962Z,75.80
2023-11-17T18:14:57.147Z,76.03
2023-11-17T18:18:01.624Z,74.70
2023-11-17T18:21:06.729Z,75.40
2023-11-17T18:24:10.861Z,76.04
2023-11-17T18:27:13.261Z,76.32
2023-11-17T18:30:16.655Z,76.01
2023-11-17T18:33:19.162Z,75.88
2023-11-17T18:36:21.798Z,74.35
2023-11-17T18:39:28.979Z,75.93
2023-11-17T18:42:33.550Z,76.06
2023-11-17T18:45:36.089Z,75.10
2023-11-17T18:48:41.312Z,75.06
2023-11-17T18:51:43.936Z,75.96
2023-11-17T18:54:50.269Z,75.75
2023-11-17T18:57:52.748Z,75.00
2023-11-17T19:00:56.782Z,75.36
2023-11-17T19:03:59.643Z,76.00
2023-11-17T19:07:02.604Z,75.63
2023-11-17T19:10:10.911Z,74.15
2023-11-17T19:13:14.316Z,75.61
2023-11-17T19:16:18.080Z,74.25
2023-11-17T19:19:20.584Z,75.73
2023-11-17T19:22:22.995Z,75.20
2023-11-17T19:25:25.605Z,74.91
2023-11-17T19:28:28.158Z,74.55
2023-11-17T19:31:30.610Z,73.35
2023-11-17T19:34:33.197Z,75.31
2023-11-17T19:37:35.721Z,74.68
2023-11-17T19:40:38.189Z,74.04
2023-11-17T19:43:42.662Z,74.20
2023-11-17T19:46:45.633Z,74.25
2023-11-17T19:49:48.465Z,76.03
2023-11-17T19:52:51.633Z,75.03
2023-11-17T19:55:59.221Z,75.30
2023-11-17T19:59:03.954Z,75.77
2023-11-17T20:02:07.472Z,74.77
2023-11-17T20:05:16.022Z,74.42
2023-11-17T20:08:21.301Z,75.97
2023-11-17T20:11:23.672Z,75.98
2023-11-17T20:14:27.045Z,76.42
2023-11-17T20:17:41.687Z,76.51
2023-11-17T20:20:52.007Z,75.62
2023-11-17T20:23:57.020Z,76.11
2023-11-17T20:27:00.730Z,75.43
2023-11-17T20:30:04.037Z,76.59
2023-11-17T20:33:06.587Z,75.40
2023-11-17T20:36:17.894Z,75.69
2023-11-17T20:39:20.495Z,75.87
2023-11-17T20:42:23.816Z,75.83
2023-11-17T20:45:28.035Z,75.56
2023-11-17T20:48:30.470Z,75.11
2023-11-17T20:51:33.172Z,75.63
2023-11-17T20:54:39.083Z,74.94
2023-11-17T20:57:42.248Z,75.94
2023-11-17T21:00:48.266Z,75.99
2023-11-17T21:03:50.946Z,74.43
2023-11-17T21:06:57.005Z,75.20
2023-11-17T21:09:59.619Z,75.11
2023-11-17T21:13:04.675Z,74.38
2023-11-17T21:16:08.908Z,74.92
2023-11-17T21:19:11.664Z,75.14
2023-11-17T21:22:15.179Z,75.25
2023-11-17T21:25:20.155Z,74.62
2023-11-17T21:28:27.304Z,74.15
2023-11-17T21:31:38.542Z,75.03
2023-11-17T21:34:41.020Z,74.89
2023-11-17T21:37:46.610Z,75.24
2023-11-17T21:40:49.058Z,74.53
2023-11-17T21:43:52.586Z,74.96
2023-11-17T21:46:56.522Z,74.67
2023-11-17T21:49:59.411Z,75.14
2023-11-17T21:53:04.581Z,74.44
2023-11-17T21:56:08.450Z,75.66
2023-11-17T21:59:10.792Z,75.25
2023-11-17T22:02:14.656Z,76.04
2023-11-17T22:05:21.222Z,75.59
2023-11-17T22:08:25.005Z,75.80
2023-11-17T22:11:27.406Z,74.81
2023-11-17T22:14:29.896Z,75.78
2023-11-17T22:17:32.374Z,76.39
2023-11-17T22:20:34.867Z,75.88
2023-11-17T22:23:37.328Z,76.36
2023-11-17T22:26:42.944Z,75.93
2023-11-17T22:29:45.913Z,76.36
2023-11-17T22:32:49.326Z,76.86
2023-11-17T22:35:52.148Z,76.69
2023-11-17T22:38:54.520Z,76.24
2023-11-17T22:41:56.937Z,77.42
2023-11-17T22:44:59.455Z,77.40
2023-11-17T22:48:02.037Z,77.02
2023-11-17T22:51:04.918Z,77.75
2023-11-17T22:54:07.553Z,78.24
2023-11-17T22:57:10.162Z,78.57
2023-11-17T23:00:36.179Z,79.08
2023-11-17T23:03:38.776Z,78.89
2023-11-17T23:06:41.354Z,79.32
2023-11-17T23:09:44.100Z,79.00
2023-11-17T23:12:48.270Z,80.22
2023-11-17T23:15:50.545Z,79.83
2023-11-17T23:18:53.156Z,79.38
2023-11-17T23:21:56.139Z,80.12
2023-11-17T23:24:58.560Z,80.18
2023-11-17T23:28:01.981Z,79.91
2023-11-17T23:31:15.454Z,80.45
2023-11-17T23:34:19.090Z,80.23
2023-11-17T23:37:21.480Z,80.64
2023-11-17T23:40:24.402Z,79.78
2023-11-17T23:43:26.957Z,79.35
2023-11-17T23:46:29.426Z,80.61
2023-11-17T23:49:33.872Z,80.42
2023-11-17T23:52:37.838Z,79.74
2023-11-17T23:55:40.334Z,80.05
2023-11-17T23:58:42.818Z,79.32
